sensor_id;sensor_type;location;lat;lon;timestamp;P1;durP1;ratioP1;P2;durP2;ratioP2
36787;SDS011;22738;45.560;9.434;2023-06-22T00:03:50;15.63;;;8.15;;
36787;SDS011;22738;45.560;9.434;2023-06-22T00:10:31;13.00;;;7.63;;
36787;SDS011;22738;45.560;9.434;2023-06-22T00:17:12;12.93;;;8.18;;
36787;SDS011;22738;45.560;9.434;2023-06-22T00:23:53;16.33;;;8.80;;
36787;SDS011;22738;45.560;9.434;2023-06-22T00:30:34;15.43;;;8.77;;
36787;SDS011;22738;45.560;9.434;2023-06-22T00:37:16;14.73;;;8.70;;
36787;SDS011;22738;45.560;9.434;2023-06-22T00:43:57;15.00;;;8.77;;
36787;SDS011;22738;45.560;9.434;2023-06-22T00:50:38;12.80;;;8.45;;
36787;SDS011;22738;45.560;9.434;2023-06-22T00:57:20;12.43;;;8.55;;
36787;SDS011;22738;45.560;9.434;2023-06-22T01:04:02;17.10;;;9.70;;
36787;SDS011;22738;45.560;9.434;2023-06-22T01:10:46;13.48;;;9.00;;
36787;SDS011;22738;45.560;9.434;2023-06-22T01:17:35;18.92;;;10.13;;
36787;SDS011;22738;45.560;9.434;2023-06-22T01:31:12;14.07;;;9.32;;
36787;SDS011;22738;45.560;9.434;2023-06-22T01:37:56;15.65;;;9.00;;
36787;SDS011;22738;45.560;9.434;2023-06-22T01:44:37;14.98;;;8.80;;
36787;SDS011;22738;45.560;9.434;2023-06-22T01:51:19;17.20;;;9.60;;
36787;SDS011;22738;45.560;9.434;2023-06-22T01:58:00;17.10;;;9.55;;
36787;SDS011;22738;45.560;9.434;2023-06-22T02:11:22;16.05;;;8.90;;
36787;SDS011;22738;45.560;9.434;2023-06-22T02:18:08;17.83;;;10.20;;
36787;SDS011;22738;45.560;9.434;2023-06-22T02:24:49;16.65;;;9.90;;
36787;SDS011;22738;45.560;9.434;2023-06-22T02:31:34;15.43;;;9.77;;
36787;SDS011;22738;45.560;9.434;2023-06-22T02:38:15;14.95;;;9.30;;
36787;SDS011;22738;45.560;9.434;2023-06-22T02:44:56;16.73;;;10.15;;
36787;SDS011;22738;45.560;9.434;2023-06-22T02:51:41;17.35;;;9.98;;
36787;SDS011;22738;45.560;9.434;2023-06-22T02:58:28;25.85;;;11.02;;
36787;SDS011;22738;45.560;9.434;2023-06-22T03:05:10;17.95;;;10.07;;
36787;SDS011;22738;45.560;9.434;2023-06-22T03:11:54;19.55;;;10.32;;
36787;SDS011;22738;45.560;9.434;2023-06-22T03:18:37;17.30;;;8.80;;
36787;SDS011;22738;45.560;9.434;2023-06-22T03:25:18;17.23;;;8.48;;
36787;SDS011;22738;45.560;9.434;2023-06-22T03:32:02;13.65;;;8.25;;
36787;SDS011;22738;45.560;9.434;2023-06-22T03:38:46;15.98;;;9.00;;
36787;SDS011;22738;45.560;9.434;2023-06-22T03:45:29;18.07;;;7.97;;
36787;SDS011;22738;45.560;9.434;2023-06-22T03:52:10;14.88;;;9.20;;
36787;SDS011;22738;45.560;9.434;2023-06-22T03:58:51;18.02;;;9.68;;
36787;SDS011;22738;45.560;9.434;2023-06-22T04:05:32;17.60;;;8.93;;
36787;SDS011;22738;45.560;9.434;2023-06-22T04:12:13;18.15;;;8.68;;
36787;SDS011;22738;45.560;9.434;2023-06-22T04:18:54;14.23;;;8.27;;
36787;SDS011;22738;45.560;9.434;2023-06-22T04:25:36;18.38;;;9.85;;
36787;SDS011;22738;45.560;9.434;2023-06-22T04:32:17;22.42;;;8.55;;
36787;SDS011;22738;45.560;9.434;2023-06-22T04:38:58;13.70;;;7.80;;
36787;SDS011;22738;45.560;9.434;2023-06-22T04:45:39;17.70;;;8.60;;
36787;SDS011;22738;45.560;9.434;2023-06-22T04:52:20;23.65;;;8.25;;
36787;SDS011;22738;45.560;9.434;2023-06-22T04:59:02;20.23;;;7.53;;
36787;SDS011;22738;45.560;9.434;2023-06-22T05:05:44;18.30;;;8.40;;
36787;SDS011;22738;45.560;9.434;2023-06-22T05:12:25;19.38;;;8.18;;
36787;SDS011;22738;45.560;9.434;2023-06-22T05:19:06;19.63;;;6.32;;
36787;SDS011;22738;45.560;9.434;2023-06-22T05:25:50;21.10;;;7.40;;
36787;SDS011;22738;45.560;9.434;2023-06-22T05:32:32;19.60;;;7.10;;
36787;SDS011;22738;45.560;9.434;2023-06-22T05:39:14;27.67;;;7.32;;
36787;SDS011;22738;45.560;9.434;2023-06-22T05:45:55;15.50;;;7.20;;
36787;SDS011;22738;45.560;9.434;2023-06-22T05:52:37;15.27;;;6.75;;
36787;SDS011;22738;45.560;9.434;2023-06-22T05:59:18;13.07;;;6.10;;
36787;SDS011;22738;45.560;9.434;2023-06-22T06:05:59;11.05;;;5.97;;
36787;SDS011;22738;45.560;9.434;2023-06-22T06:12:41;25.23;;;8.63;;
36787;SDS011;22738;45.560;9.434;2023-06-22T06:19:22;19.00;;;7.20;;
36787;SDS011;22738;45.560;9.434;2023-06-22T06:26:03;24.15;;;7.78;;
36787;SDS011;22738;45.560;9.434;2023-06-22T06:32:47;13.65;;;8.20;;
36787;SDS011;22738;45.560;9.434;2023-06-22T06:39:28;16.65;;;6.72;;
36787;SDS011;22738;45.560;9.434;2023-06-22T06:46:10;15.10;;;6.78;;
36787;SDS011;22738;45.560;9.434;2023-06-22T06:52:51;19.57;;;7.17;;
36787;SDS011;22738;45.560;9.434;2023-06-22T06:59:32;14.27;;;6.55;;
36787;SDS011;22738;45.560;9.434;2023-06-22T07:06:13;20.23;;;6.57;;
36787;SDS011;22738;45.560;9.434;2023-06-22T07:12:54;18.37;;;7.20;;
36787;SDS011;22738;45.560;9.434;2023-06-22T07:19:35;20.67;;;6.97;;
36787;SDS011;22738;45.560;9.434;2023-06-22T07:26:16;11.57;;;6.68;;
36787;SDS011;22738;45.560;9.434;2023-06-22T07:32:58;12.07;;;6.53;;
36787;SDS011;22738;45.560;9.434;2023-06-22T07:39:43;20.95;;;6.43;;
36787;SDS011;22738;45.560;9.434;2023-06-22T07:46:24;14.60;;;6.95;;
36787;SDS011;22738;45.560;9.434;2023-06-22T07:53:06;14.00;;;6.32;;
36787;SDS011;22738;45.560;9.434;2023-06-22T07:59:47;16.63;;;6.93;;
36787;SDS011;22738;45.560;9.434;2023-06-22T08:06:29;19.38;;;7.93;;
36787;SDS011;22738;45.560;9.434;2023-06-22T08:13:11;15.85;;;7.40;;
36787;SDS011;22738;45.560;9.434;2023-06-22T08:19:52;22.65;;;7.93;;
36787;SDS011;22738;45.560;9.434;2023-06-22T08:26:33;12.57;;;6.90;;
36787;SDS011;22738;45.560;9.434;2023-06-22T08:33:18;23.40;;;8.32;;
36787;SDS011;22738;45.560;9.434;2023-06-22T08:40:02;22.80;;;7.82;;
36787;SDS011;22738;45.560;9.434;2023-06-22T08:46:49;18.13;;;7.28;;
36787;SDS011;22738;45.560;9.434;2023-06-22T08:53:31;19.08;;;7.97;;
36787;SDS011;22738;45.560;9.434;2023-06-22T09:00:12;21.98;;;7.93;;
36787;SDS011;22738;45.560;9.434;2023-06-22T09:07:00;15.80;;;7.47;;
36787;SDS011;22738;45.560;9.434;2023-06-22T09:13:42;21.33;;;8.60;;
36787;SDS011;22738;45.560;9.434;2023-06-22T09:20:24;17.60;;;7.97;;
36787;SDS011;22738;45.560;9.434;2023-06-22T09:27:07;12.77;;;6.72;;
36787;SDS011;22738;45.560;9.434;2023-06-22T09:33:48;14.95;;;7.15;;
36787;SDS011;22738;45.560;9.434;2023-06-22T09:40:29;16.35;;;6.43;;
36787;SDS011;22738;45.560;9.434;2023-06-22T09:47:10;12.75;;;6.63;;
36787;SDS011;22738;45.560;9.434;2023-06-22T09:53:51;12.88;;;6.60;;
36787;SDS011;22738;45.560;9.434;2023-06-22T10:00:34;18.33;;;6.10;;
36787;SDS011;22738;45.560;9.434;2023-06-22T10:07:15;12.00;;;6.00;;
36787;SDS011;22738;45.560;9.434;2023-06-22T10:13:56;37.03;;;7.80;;
36787;SDS011;22738;45.560;9.434;2023-06-22T10:20:37;18.48;;;6.03;;
36787;SDS011;22738;45.560;9.434;2023-06-22T10:27:18;15.38;;;6.07;;
36787;SDS011;22738;45.560;9.434;2023-06-22T10:34:01;15.85;;;6.30;;
36787;SDS011;22738;45.560;9.434;2023-06-22T10:40:42;12.63;;;6.05;;
36787;SDS011;22738;45.560;9.434;2023-06-22T10:47:23;16.88;;;5.63;;
36787;SDS011;22738;45.560;9.434;2023-06-22T10:54:04;19.98;;;5.78;;
36787;SDS011;22738;45.560;9.434;2023-06-22T11:00:45;16.40;;;6.07;;
36787;SDS011;22738;45.560;9.434;2023-06-22T11:07:26;12.05;;;5.40;;
36787;SDS011;22738;45.560;9.434;2023-06-22T11:14:10;9.50;;;4.97;;
36787;SDS011;22738;45.560;9.434;2023-06-22T11:20:53;10.07;;;6.32;;
36787;SDS011;22738;45.560;9.434;2023-06-22T11:27:34;10.90;;;5.82;;
36787;SDS011;22738;45.560;9.434;2023-06-22T11:34:15;13.52;;;6.38;;
36787;SDS011;22738;45.560;9.434;2023-06-22T11:40:59;16.17;;;6.60;;
36787;SDS011;22738;45.560;9.434;2023-06-22T11:47:41;17.88;;;6.35;;
36787;SDS011;22738;45.560;9.434;2023-06-22T11:54:22;15.38;;;6.68;;
36787;SDS011;22738;45.560;9.434;2023-06-22T12:01:03;13.18;;;7.57;;
36787;SDS011;22738;45.560;9.434;2023-06-22T12:07:44;15.27;;;6.22;;
36787;SDS011;22738;45.560;9.434;2023-06-22T12:14:25;11.50;;;6.35;;
36787;SDS011;22738;45.560;9.434;2023-06-22T12:21:06;13.75;;;7.90;;
36787;SDS011;22738;45.560;9.434;2023-06-22T12:27:48;13.90;;;7.30;;
36787;SDS011;22738;45.560;9.434;2023-06-22T12:34:29;11.83;;;6.60;;
36787;SDS011;22738;45.560;9.434;2023-06-22T12:41:10;13.85;;;7.25;;
36787;SDS011;22738;45.560;9.434;2023-06-22T12:47:51;17.17;;;6.53;;
36787;SDS011;22738;45.560;9.434;2023-06-22T12:54:32;10.02;;;7.10;;
36787;SDS011;22738;45.560;9.434;2023-06-22T13:01:13;15.07;;;6.80;;
36787;SDS011;22738;45.560;9.434;2023-06-22T13:07:55;16.27;;;7.63;;
36787;SDS011;22738;45.560;9.434;2023-06-22T13:14:36;13.30;;;6.78;;
36787;SDS011;22738;45.560;9.434;2023-06-22T13:21:17;18.98;;;7.65;;
36787;SDS011;22738;45.560;9.434;2023-06-22T13:27:58;13.75;;;6.57;;
36787;SDS011;22738;45.560;9.434;2023-06-22T13:34:39;19.45;;;8.20;;
36787;SDS011;22738;45.560;9.434;2023-06-22T13:41:20;17.33;;;7.45;;
36787;SDS011;22738;45.560;9.434;2023-06-22T13:48:01;14.18;;;7.60;;
36787;SDS011;22738;45.560;9.434;2023-06-22T13:54:42;15.50;;;7.88;;
36787;SDS011;22738;45.560;9.434;2023-06-22T14:01:23;17.50;;;7.57;;
36787;SDS011;22738;45.560;9.434;2023-06-22T14:08:04;15.00;;;7.95;;
36787;SDS011;22738;45.560;9.434;2023-06-22T14:14:45;14.70;;;7.75;;
36787;SDS011;22738;45.560;9.434;2023-06-22T14:21:27;16.42;;;8.57;;
36787;SDS011;22738;45.560;9.434;2023-06-22T14:28:08;22.50;;;9.70;;
36787;SDS011;22738;45.560;9.434;2023-06-22T14:34:49;19.23;;;8.85;;
36787;SDS011;22738;45.560;9.434;2023-06-22T14:41:31;27.13;;;9.70;;
36787;SDS011;22738;45.560;9.434;2023-06-22T14:48:12;22.20;;;8.75;;
36787;SDS011;22738;45.560;9.434;2023-06-22T14:54:55;13.45;;;7.18;;
36787;SDS011;22738;45.560;9.434;2023-06-22T15:01:36;17.13;;;7.60;;
36787;SDS011;22738;45.560;9.434;2023-06-22T15:08:17;12.43;;;6.65;;
36787;SDS011;22738;45.560;9.434;2023-06-22T15:14:58;12.75;;;6.85;;
36787;SDS011;22738;45.560;9.434;2023-06-22T15:21:39;11.25;;;6.30;;
36787;SDS011;22738;45.560;9.434;2023-06-22T15:28:20;13.18;;;7.43;;
36787;SDS011;22738;45.560;9.434;2023-06-22T15:35:02;14.90;;;7.00;;
36787;SDS011;22738;45.560;9.434;2023-06-22T15:41:43;14.85;;;7.47;;
36787;SDS011;22738;45.560;9.434;2023-06-22T15:48:24;14.38;;;7.38;;
36787;SDS011;22738;45.560;9.434;2023-06-22T15:55:05;9.02;;;5.43;;
36787;SDS011;22738;45.560;9.434;2023-06-22T16:01:48;9.00;;;5.38;;
36787;SDS011;22738;45.560;9.434;2023-06-22T16:08:29;7.72;;;5.05;;
36787;SDS011;22738;45.560;9.434;2023-06-22T16:15:11;7.53;;;5.68;;
36787;SDS011;22738;45.560;9.434;2023-06-22T16:21:53;7.68;;;6.00;;
36787;SDS011;22738;45.560;9.434;2023-06-22T16:28:35;11.10;;;6.47;;
36787;SDS011;22738;45.560;9.434;2023-06-22T16:35:16;10.75;;;6.57;;
36787;SDS011;22738;45.560;9.434;2023-06-22T16:41:57;14.13;;;6.22;;
36787;SDS011;22738;45.560;9.434;2023-06-22T16:48:38;13.20;;;6.20;;
36787;SDS011;22738;45.560;9.434;2023-06-22T16:55:20;10.77;;;6.18;;
36787;SDS011;22738;45.560;9.434;2023-06-22T17:08:43;10.13;;;5.38;;
36787;SDS011;22738;45.560;9.434;2023-06-22T17:15:25;13.75;;;7.82;;
36787;SDS011;22738;45.560;9.434;2023-06-22T17:22:11;13.23;;;7.15;;
36787;SDS011;22738;45.560;9.434;2023-06-22T17:28:55;10.80;;;6.25;;
36787;SDS011;22738;45.560;9.434;2023-06-22T17:35:45;13.77;;;6.80;;
36787;SDS011;22738;45.560;9.434;2023-06-22T17:42:29;9.98;;;5.25;;
36787;SDS011;22738;45.560;9.434;2023-06-22T17:49:11;10.48;;;5.80;;
36787;SDS011;22738;45.560;9.434;2023-06-22T17:55:53;8.88;;;5.68;;
36787;SDS011;22738;45.560;9.434;2023-06-22T18:02:40;12.63;;;6.63;;
36787;SDS011;22738;45.560;9.434;2023-06-22T18:09:23;11.23;;;7.15;;
36787;SDS011;22738;45.560;9.434;2023-06-22T18:16:04;20.05;;;7.85;;
36787;SDS011;22738;45.560;9.434;2023-06-22T18:22:47;9.50;;;6.53;;
36787;SDS011;22738;45.560;9.434;2023-06-22T18:29:30;19.98;;;7.57;;
36787;SDS011;22738;45.560;9.434;2023-06-22T18:36:13;21.57;;;8.60;;
36787;SDS011;22738;45.560;9.434;2023-06-22T18:42:58;19.02;;;8.07;;
36787;SDS011;22738;45.560;9.434;2023-06-22T18:56:24;18.85;;;8.25;;
36787;SDS011;22738;45.560;9.434;2023-06-22T19:03:05;20.02;;;8.25;;
36787;SDS011;22738;45.560;9.434;2023-06-22T19:10:20;17.35;;;7.47;;
36787;SDS011;22738;45.560;9.434;2023-06-22T19:17:01;18.08;;;9.07;;
36787;SDS011;22738;45.560;9.434;2023-06-22T19:23:43;21.33;;;8.63;;
36787;SDS011;22738;45.560;9.434;2023-06-22T19:30:25;19.97;;;9.53;;
36787;SDS011;22738;45.560;9.434;2023-06-22T19:37:14;14.85;;;8.00;;
36787;SDS011;22738;45.560;9.434;2023-06-22T19:43:56;18.52;;;6.82;;
36787;SDS011;22738;45.560;9.434;2023-06-22T19:50:38;14.82;;;8.13;;
36787;SDS011;22738;45.560;9.434;2023-06-22T19:57:21;19.13;;;8.55;;
36787;SDS011;22738;45.560;9.434;2023-06-22T20:04:02;14.65;;;8.30;;
36787;SDS011;22738;45.560;9.434;2023-06-22T20:10:45;18.67;;;8.43;;
36787;SDS011;22738;45.560;9.434;2023-06-22T20:17:26;16.05;;;7.35;;
36787;SDS011;22738;45.560;9.434;2023-06-22T20:24:08;22.02;;;9.93;;
36787;SDS011;22738;45.560;9.434;2023-06-22T20:31:00;15.40;;;8.02;;
36787;SDS011;22738;45.560;9.434;2023-06-22T20:37:43;16.38;;;8.25;;
36787;SDS011;22738;45.560;9.434;2023-06-22T20:44:24;24.98;;;10.00;;
36787;SDS011;22738;45.560;9.434;2023-06-22T20:51:06;18.25;;;9.95;;
36787;SDS011;22738;45.560;9.434;2023-06-22T20:57:47;15.88;;;7.88;;
36787;SDS011;22738;45.560;9.434;2023-06-22T21:04:29;16.87;;;9.43;;
36787;SDS011;22738;45.560;9.434;2023-06-22T21:11:11;16.90;;;9.53;;
36787;SDS011;22738;45.560;9.434;2023-06-22T21:17:53;15.90;;;9.80;;
36787;SDS011;22738;45.560;9.434;2023-06-22T21:24:34;15.60;;;9.30;;
36787;SDS011;22738;45.560;9.434;2023-06-22T21:31:15;14.60;;;8.90;;
36787;SDS011;22738;45.560;9.434;2023-06-22T21:38:02;18.42;;;11.35;;
36787;SDS011;22738;45.560;9.434;2023-06-22T21:44:44;19.58;;;11.75;;
36787;SDS011;22738;45.560;9.434;2023-06-22T21:51:28;25.85;;;12.13;;
36787;SDS011;22738;45.560;9.434;2023-06-22T21:58:11;18.83;;;10.77;;
36787;SDS011;22738;45.560;9.434;2023-06-22T22:04:53;20.35;;;10.80;;
36787;SDS011;22738;45.560;9.434;2023-06-22T22:11:34;17.88;;;11.55;;
36787;SDS011;22738;45.560;9.434;2023-06-22T22:18:15;22.05;;;12.32;;
36787;SDS011;22738;45.560;9.434;2023-06-22T22:24:56;17.00;;;9.93;;
36787;SDS011;22738;45.560;9.434;2023-06-22T22:31:38;15.85;;;10.77;;
36787;SDS011;22738;45.560;9.434;2023-06-22T22:38:22;19.05;;;12.40;;
36787;SDS011;22738;45.560;9.434;2023-06-22T22:45:04;18.45;;;9.65;;
36787;SDS011;22738;45.560;9.434;2023-06-22T22:51:47;15.27;;;9.52;;
36787;SDS011;22738;45.560;9.434;2023-06-22T22:58:28;21.02;;;10.32;;
36787;SDS011;22738;45.560;9.434;2023-06-22T23:05:10;26.13;;;12.88;;
36787;SDS011;22738;45.560;9.434;2023-06-22T23:11:52;24.77;;;14.65;;
36787;SDS011;22738;45.560;9.434;2023-06-22T23:18:33;21.70;;;13.35;;
36787;SDS011;22738;45.560;9.434;2023-06-22T23:25:14;21.17;;;12.95;;
36787;SDS011;22738;45.560;9.434;2023-06-22T23:31:55;20.65;;;12.90;;
36787;SDS011;22738;45.560;9.434;2023-06-22T23:38:37;21.17;;;13.38;;
36787;SDS011;22738;45.560;9.434;2023-06-22T23:45:20;15.07;;;11.25;;
36787;SDS011;22738;45.560;9.434;2023-06-22T23:52:02;20.08;;;11.48;;
36787;SDS011;22738;45.560;9.434;2023-06-22T23:58:45;18.10;;;11.85;;
